Jefferson Park, New York
Current Conditions -  °F | °C
As of 6:56 AM on Friday 19 Dec 2014 (Local Time) from KART Reporting Station
Haze Haze  
Wind Chill: -8°   Ceiling: 700
Heat Index: -4°   Visibility: 4mi
Dew Point: -7°   Wind: 6mph
Humidity: 78%   Direction: 300°WNW
Pressure: 30.09"   Gusts: NA
Location:  43.8534°N, 76.251°W
Report Text: KART 191156Z AUTO 30005KT 4SM HZ BKN007 OVC012 M04/M07 A3009 RMK AO2 SLP194 I1000 I6002 T10391072 11022 21039 53010
Loading
Personal Weather Stations






























Interactive Weather Map New forecast layout! Learn more

10-Day Weather Forecast

Advertisements
Track Severe Weather on mobile